createdAt,value
2018-01-20T00:00:04.844Z,100012
2018-01-20T00:02:33.570Z,100016
2018-01-20T00:05:02.496Z,100015
2018-01-20T00:07:31.336Z,100005
2018-01-20T00:10:29.545Z,100005
2018-01-20T00:12:58.021Z,100010
2018-01-20T00:15:26.504Z,100002
2018-01-20T00:17:59.941Z,100010
2018-01-20T00:20:28.419Z,100029
2018-01-20T00:23:00.379Z,100015
2018-01-20T00:25:29.071Z,100009
2018-01-20T00:27:58.165Z,100010
2018-01-20T00:30:27.569Z,100005
2018-01-20T00:32:56.099Z,100006
2018-01-20T00:35:25.351Z,100004
2018-01-20T00:37:53.832Z,100005
2018-01-20T00:40:22.620Z,100001
2018-01-20T00:42:51.129Z,100001
2018-01-20T00:45:19.588Z,99997
2018-01-20T00:47:48.092Z,99998
2018-01-20T00:50:16.856Z,100003
2018-01-20T00:52:45.337Z,100001
2018-01-20T00:55:13.811Z,99986
2018-01-20T00:57:42.309Z,100003
2018-01-20T01:00:10.780Z,99999
2018-01-20T01:02:39.433Z,99993
2018-01-20T01:05:08.337Z,100002
2018-01-20T01:07:36.976Z,99997
2018-01-20T01:10:06.593Z,100009
2018-01-20T01:12:35.841Z,99998
2018-01-20T01:15:04.828Z,100007
2018-01-20T01:17:33.383Z,100006
2018-01-20T01:20:02.213Z,100004
2018-01-20T01:22:30.787Z,100001
2018-01-20T01:24:59.485Z,99992
2018-01-20T01:27:27.956Z,100000
2018-01-20T01:29:56.454Z,100005
2018-01-20T01:32:24.938Z,100003
2018-01-20T01:34:53.790Z,100008
2018-01-20T01:37:22.274Z,99998
2018-01-20T01:39:50.818Z,100004
2018-01-20T01:42:19.321Z,100003
2018-01-20T01:44:48.100Z,100003
2018-01-20T01:47:17.549Z,100007
2018-01-20T01:49:46.140Z,100002
2018-01-20T01:52:14.581Z,99991
2018-01-20T01:54:43.058Z,99998
2018-01-20T01:57:12.490Z,100001
2018-01-20T01:59:41.248Z,99998
2018-01-20T02:02:09.722Z,99991
2018-01-20T02:04:38.440Z,99992
2018-01-20T02:07:06.925Z,99992
2018-01-20T02:09:35.376Z,99990
2018-01-20T02:12:03.908Z,99989
2018-01-20T02:14:32.381Z,99981
2018-01-20T02:17:01.075Z,99978
2018-01-20T02:19:29.818Z,99981
2018-01-20T02:21:58.550Z,99970
2018-01-20T02:24:27.236Z,99979
2018-01-20T02:26:55.973Z,99971
2018-01-20T02:29:25.428Z,99971
2018-01-20T02:31:54.032Z,99965
2018-01-20T02:34:22.473Z,99967
2018-01-20T02:36:51.104Z,99966
2018-01-20T02:39:19.604Z,99968
2018-01-20T02:41:48.797Z,99967
2018-01-20T02:44:17.292Z,99971
2018-01-20T02:46:46.001Z,99961
2018-01-20T02:49:14.572Z,99974
2018-01-20T02:51:43.436Z,99968
2018-01-20T02:54:12.188Z,99956
2018-01-20T02:56:40.897Z,99968
2018-01-20T02:59:09.763Z,99962
2018-01-20T03:01:38.251Z,99964
2018-01-20T03:04:07.115Z,99963
2018-01-20T03:06:36.436Z,99956
2018-01-20T03:09:05.654Z,99959
2018-01-20T03:11:34.253Z,99955
2018-01-20T03:14:02.888Z,99958
2018-01-20T03:16:31.429Z,99954
2018-01-20T03:19:00.625Z,99953
2018-01-20T03:21:29.119Z,99948
2018-01-20T03:23:57.600Z,99949
2018-01-20T03:26:26.061Z,99944
2018-01-20T03:28:55.200Z,99944
2018-01-20T03:31:23.741Z,99945
2018-01-20T03:33:52.599Z,99951
2018-01-20T03:36:21.286Z,99957
2018-01-20T03:38:49.756Z,99962
2018-01-20T03:41:18.217Z,99956
2018-01-20T03:43:46.652Z,99959
2018-01-20T03:46:16.664Z,99957
2018-01-20T03:48:46.216Z,99949
2018-01-20T03:51:14.734Z,99953
2018-01-20T03:53:43.623Z,99946
2018-01-20T03:56:12.137Z,99933
2018-01-20T03:58:40.764Z,99930
2018-01-20T04:01:09.305Z,99931
2018-01-20T04:03:38.189Z,99911
2018-01-20T04:06:06.869Z,99938
2018-01-20T04:08:36.130Z,99930
2018-01-20T04:11:04.912Z,99939
2018-01-20T04:13:33.600Z,99938
2018-01-20T04:16:02.311Z,99928
2018-01-20T04:18:30.756Z,99931
2018-01-20T04:20:59.460Z,99935
2018-01-20T04:23:27.907Z,99941
2018-01-20T04:25:56.400Z,99936
2018-01-20T04:28:25.144Z,99936
2018-01-20T04:30:53.649Z,99936
2018-01-20T04:33:22.957Z,99940
2018-01-20T04:35:51.407Z,99924
2018-01-20T04:38:19.889Z,99934
2018-01-20T04:40:48.478Z,99937
2018-01-20T04:43:17.412Z,99936
2018-01-20T04:45:46.103Z,99937
2018-01-20T04:48:14.934Z,99937
2018-01-20T04:50:43.657Z,99929
2018-01-20T04:53:13.124Z,99927
2018-01-20T04:55:42.014Z,99928
2018-01-20T04:58:10.704Z,99918
2018-01-20T05:00:40.077Z,99910
2018-01-20T05:03:08.545Z,99911
2018-01-20T05:05:37.222Z,99913
2018-01-20T05:08:06.843Z,99916
2018-01-20T05:10:35.619Z,99918
2018-01-20T05:13:04.430Z,99915
2018-01-20T05:15:33.145Z,99908
2018-01-20T05:18:01.734Z,99918
2018-01-20T05:20:30.209Z,99921
2018-01-20T05:22:59.560Z,99953
2018-01-20T05:25:28.026Z,99915
2018-01-20T05:27:57.241Z,99912
2018-01-20T05:30:26.097Z,99911
2018-01-20T05:32:56.124Z,99905
2018-01-20T05:35:25.616Z,99909
2018-01-20T05:37:55.140Z,99911
2018-01-20T05:40:24.416Z,99908
2018-01-20T05:42:52.904Z,99908
2018-01-20T05:45:21.377Z,99907
2018-01-20T05:47:50.714Z,99909
2018-01-20T05:50:19.953Z,99909
2018-01-20T05:52:48.464Z,99905
2018-01-20T05:55:18.437Z,99905
2018-01-20T05:57:47.135Z,99903
2018-01-20T06:00:16.037Z,99918
2018-01-20T06:02:44.726Z,99909
2018-01-20T06:05:13.406Z,99919
2018-01-20T06:07:42.183Z,99918
2018-01-20T06:10:10.682Z,99912
2018-01-20T06:12:39.368Z,99912
2018-01-20T06:15:07.953Z,99905
2018-01-20T06:17:36.424Z,99915
2018-01-20T06:20:05.121Z,99909
2018-01-20T06:22:33.990Z,99905
2018-01-20T06:25:02.697Z,99909
2018-01-20T06:27:31.777Z,99905
2018-01-20T06:30:00.464Z,99899
2018-01-20T06:32:29.104Z,99902
2018-01-20T06:34:58.552Z,99903
2018-01-20T06:37:27.256Z,99899
2018-01-20T06:39:55.917Z,99898
2018-01-20T06:42:24.413Z,99893
2018-01-20T06:44:53.212Z,99889
2018-01-20T06:47:21.692Z,99886
2018-01-20T06:49:50.175Z,99887
2018-01-20T06:52:19.374Z,99875
2018-01-20T06:54:48.059Z,99876
2018-01-20T06:57:16.718Z,99882
2018-01-20T06:59:45.305Z,99880
2018-01-20T07:02:13.788Z,99881
2018-01-20T07:04:43.328Z,99878
2018-01-20T07:07:13.332Z,99881
2018-01-20T07:09:41.820Z,99883
2018-01-20T07:12:10.281Z,99886
2018-01-20T07:14:39.165Z,99885
2018-01-20T07:17:07.744Z,99893
2018-01-20T07:19:36.226Z,99891
2018-01-20T07:22:04.702Z,99887
2018-01-20T07:24:34.342Z,99893
2018-01-20T07:27:03.628Z,99895
2018-01-20T07:29:32.534Z,99901
2018-01-20T07:32:00.961Z,99897
2018-01-20T07:34:29.517Z,99899
2018-01-20T07:36:58.943Z,99893
2018-01-20T07:39:28.405Z,99892
2018-01-20T07:41:56.977Z,99907
2018-01-20T07:44:25.545Z,99906
2018-01-20T07:46:54.261Z,99906
2018-01-20T07:49:23.245Z,99902
2018-01-20T07:51:52.012Z,99904
2018-01-20T07:54:20.517Z,99895
2018-01-20T07:56:48.960Z,99906
2018-01-20T07:59:17.444Z,99898
2018-01-20T08:01:46.050Z,99900
2018-01-20T08:04:14.504Z,99896
2018-01-20T08:06:43.001Z,99891
2018-01-20T08:09:11.475Z,99894
2018-01-20T08:11:39.952Z,99883
2018-01-20T08:14:08.516Z,99887
2018-01-20T08:16:36.977Z,99886
2018-01-20T08:19:05.476Z,99891
2018-01-20T08:21:34.688Z,99889
2018-01-20T08:24:03.257Z,99887
2018-01-20T08:26:32.961Z,99884
2018-01-20T08:29:01.463Z,99896
2018-01-20T08:31:30.100Z,99894
2018-01-20T08:33:58.622Z,99886
2018-01-20T08:36:27.138Z,99901
2018-01-20T08:38:55.621Z,99904
2018-01-20T08:41:24.089Z,99902
2018-01-20T08:43:52.548Z,99902
2018-01-20T08:46:21.016Z,99903
2018-01-20T08:48:50.391Z,99910
2018-01-20T08:51:19.465Z,99914
2018-01-20T08:53:47.968Z,99902
2018-01-20T08:56:16.633Z,99915
2018-01-20T08:58:45.279Z,99906
2018-01-20T09:01:13.880Z,99904
2018-01-20T09:03:42.343Z,99899
2018-01-20T09:06:12.018Z,99901
2018-01-20T09:08:41.217Z,99905
2018-01-20T09:11:09.779Z,99887
2018-01-20T09:13:38.245Z,99890
2018-01-20T09:16:06.801Z,99900
2018-01-20T09:18:36.271Z,99898
2018-01-20T09:21:04.861Z,99900
2018-01-20T09:23:33.387Z,99905
2018-01-20T09:26:02.341Z,99910
2018-01-20T09:28:30.837Z,99901
2018-01-20T09:30:59.388Z,99904
2018-01-20T09:33:27.853Z,99906
2018-01-20T09:35:56.532Z,99909
2018-01-20T09:38:25.080Z,99904
2018-01-20T09:40:54.373Z,99903
2018-01-20T09:43:23.020Z,99903
2018-01-20T09:45:51.783Z,99893
2018-01-20T09:48:20.590Z,99895
2018-01-20T09:50:49.116Z,99893
2018-01-20T09:53:17.596Z,99904
2018-01-20T09:55:46.250Z,99899
2018-01-20T09:58:14.937Z,99890
2018-01-20T10:00:44.074Z,99888
2018-01-20T10:03:12.553Z,99893
2018-01-20T10:05:41.748Z,99890
2018-01-20T10:08:10.201Z,99883
2018-01-20T10:10:38.956Z,99887
2018-01-20T10:13:07.640Z,99887
2018-01-20T10:15:37.096Z,99894
2018-01-20T10:18:06.937Z,99892
2018-01-20T10:20:36.367Z,99884
2018-01-20T10:23:05.076Z,99883
2018-01-20T10:25:33.556Z,99889
2018-01-20T10:28:02.229Z,99887
2018-01-20T10:30:31.001Z,99887
2018-01-20T10:32:59.460Z,99887
2018-01-20T10:35:28.709Z,99877
2018-01-20T10:37:57.816Z,99875
2018-01-20T10:40:27.204Z,99874
2018-01-20T10:42:56.036Z,99865
2018-01-20T10:45:24.836Z,99866
2018-01-20T10:47:54.065Z,99865
2018-01-20T10:50:22.751Z,99863
2018-01-20T10:52:51.184Z,99862
2018-01-20T10:55:19.649Z,99858
2018-01-20T10:57:48.368Z,99865
2018-01-20T11:00:18.050Z,99845
2018-01-20T11:02:46.520Z,99841
2018-01-20T11:05:15.010Z,99838
2018-01-20T11:07:43.436Z,99834
2018-01-20T11:10:12.243Z,99845
2018-01-20T11:12:40.688Z,99838
2018-01-20T11:15:10.036Z,99840
2018-01-20T11:17:38.497Z,99830
2018-01-20T11:20:06.971Z,99823
2018-01-20T11:22:35.802Z,99811
2018-01-20T11:25:04.522Z,99809
2018-01-20T11:27:34.402Z,99817
2018-01-20T11:30:02.959Z,99807
2018-01-20T11:32:31.805Z,99822
2018-01-20T11:35:00.257Z,99826
2018-01-20T11:37:28.713Z,99821
2018-01-20T11:39:57.189Z,99817
2018-01-20T11:42:26.039Z,99807
2018-01-20T11:44:54.881Z,99807
2018-01-20T11:47:23.356Z,99759
2018-01-20T11:49:51.940Z,99807
2018-01-20T11:52:20.523Z,99798
2018-01-20T11:54:49.021Z,99797
2018-01-20T11:57:17.495Z,99789
2018-01-20T11:59:46.282Z,99783
2018-01-20T12:02:14.840Z,99781
2018-01-20T12:04:43.385Z,99783
2018-01-20T12:07:12.492Z,99776
2018-01-20T12:09:41.389Z,99760
2018-01-20T12:12:11.339Z,99760
2018-01-20T12:14:39.904Z,99767
2018-01-20T12:17:09.340Z,99755
2018-01-20T12:19:38.046Z,99745
2018-01-20T12:22:06.717Z,99751
2018-01-20T12:24:36.072Z,99745
2018-01-20T12:27:04.832Z,99743
2018-01-20T12:29:33.382Z,99749
2018-01-20T12:32:01.993Z,99742
2018-01-20T12:34:30.777Z,99738
2018-01-20T12:36:59.319Z,99731
2018-01-20T12:39:27.848Z,99728
2018-01-20T12:41:56.529Z,99734
2018-01-20T12:44:25.409Z,99725
2018-01-20T12:46:53.959Z,99723
2018-01-20T12:49:23.600Z,99719
2018-01-20T12:51:52.128Z,99721
2018-01-20T12:54:22.119Z,99726
2018-01-20T12:56:50.668Z,99712
2018-01-20T12:59:19.253Z,99713
2018-01-20T13:01:48.772Z,99720
2018-01-20T13:04:40.076Z,99711
2018-01-20T13:07:08.861Z,99706
2018-01-20T13:09:37.344Z,99713
2018-01-20T13:12:05.928Z,99702
2018-01-20T13:14:34.410Z,99701
2018-01-20T13:17:03.120Z,99707
2018-01-20T13:19:31.590Z,99693
2018-01-20T13:22:00.185Z,99690
2018-01-20T13:24:29.286Z,99689
2018-01-20T13:26:57.793Z,99687
2018-01-20T13:29:26.556Z,99686
2018-01-20T13:31:55.049Z,99688
2018-01-20T13:34:23.573Z,99687
2018-01-20T13:36:52.800Z,99691
2018-01-20T13:39:21.342Z,99673
2018-01-20T13:41:50.808Z,99675
2018-01-20T13:44:19.296Z,99676
2018-01-20T13:46:47.780Z,99669
2018-01-20T13:49:16.517Z,99677
2018-01-20T13:51:45.712Z,99670
2018-01-20T13:54:14.174Z,99667
2018-01-20T13:56:42.894Z,99668
2018-01-20T13:59:11.406Z,99655
2018-01-20T14:01:40.094Z,99657
2018-01-20T14:04:08.761Z,99657
2018-01-20T14:06:37.350Z,99658
2018-01-20T14:09:06.665Z,99662
2018-01-20T14:11:35.130Z,99666
2018-01-20T14:14:03.703Z,99660
2018-01-20T14:16:32.162Z,99659
2018-01-20T14:19:01.413Z,99641
2018-01-20T14:21:29.945Z,99660
2018-01-20T14:23:59.263Z,99657
2018-01-20T14:26:27.737Z,99653
2018-01-20T14:28:56.259Z,99650
2018-01-20T14:31:24.945Z,99662
2018-01-20T14:33:54.143Z,99658
2018-01-20T14:36:22.594Z,99660
2018-01-20T14:38:52.592Z,99652
2018-01-20T14:41:21.774Z,99652
2018-01-20T14:43:50.397Z,99651
2018-01-20T14:46:19.622Z,99645
2018-01-20T14:48:48.090Z,99642
2018-01-20T14:51:16.752Z,99654
2018-01-20T14:53:45.273Z,99645
2018-01-20T14:56:13.853Z,99641
2018-01-20T14:58:42.909Z,99631
2018-01-20T15:01:11.385Z,99639
2018-01-20T15:03:40.120Z,99635
2018-01-20T15:06:08.633Z,99644
2018-01-20T15:08:38.653Z,99634
2018-01-20T15:11:07.394Z,99629
2018-01-20T15:13:35.896Z,99637
2018-01-20T15:16:04.620Z,99629
2018-01-20T15:18:33.877Z,99640
2018-01-20T15:21:02.444Z,99642
2018-01-20T15:23:30.924Z,99640
2018-01-20T15:25:59.549Z,99638
2018-01-20T15:28:28.757Z,99621
2018-01-20T15:30:57.236Z,99613
2018-01-20T15:33:25.712Z,99632
2018-01-20T15:35:54.355Z,99628
2018-01-20T15:38:23.036Z,99624
2018-01-20T15:40:52.463Z,99630
2018-01-20T15:43:20.948Z,99621
2018-01-20T15:45:49.477Z,99618
2018-01-20T15:48:18.688Z,99608
2018-01-20T15:50:47.493Z,99615
2018-01-20T15:53:15.973Z,99620
2018-01-20T15:55:44.452Z,99607
2018-01-20T15:58:13.216Z,99612
2018-01-20T16:00:42.677Z,99606
2018-01-20T16:03:11.363Z,99606
2018-01-20T16:05:40.668Z,99618
2018-01-20T16:08:09.145Z,99606
2018-01-20T16:10:38.533Z,99610
2018-01-20T16:13:07.032Z,99601
2018-01-20T16:15:35.512Z,99599
2018-01-20T16:18:04.114Z,99599
2018-01-20T16:20:32.997Z,99591
2018-01-20T16:23:01.487Z,99598
2018-01-20T16:25:29.947Z,99602
2018-01-20T16:27:58.384Z,99605
2018-01-20T16:30:27.898Z,99600
2018-01-20T16:32:56.372Z,99599
2018-01-20T16:35:24.857Z,99594
2018-01-20T16:37:53.340Z,99588
2018-01-20T16:40:21.872Z,99587
2018-01-20T16:42:50.426Z,99587
2018-01-20T16:45:19.132Z,99582
2018-01-20T16:47:47.606Z,99589
2018-01-20T16:50:16.072Z,99594
2018-01-20T16:52:44.682Z,99594
2018-01-20T16:55:13.337Z,99583
2018-01-20T16:57:41.845Z,99582
2018-01-20T17:00:10.838Z,99584
2018-01-20T17:02:39.322Z,99588
2018-01-20T17:05:08.012Z,99594
2018-01-20T17:07:36.676Z,99587
2018-01-20T17:10:05.168Z,99592
2018-01-20T17:12:33.859Z,99596
2018-01-20T17:15:02.338Z,99595
2018-01-20T17:17:30.844Z,99596
2018-01-20T17:20:00.834Z,99596
2018-01-20T17:22:29.369Z,99593
2018-01-20T17:24:59.032Z,99586
2018-01-20T17:27:27.496Z,99592
2018-01-20T17:29:56.038Z,99592
2018-01-20T17:32:25.322Z,99595
2018-01-20T17:34:53.982Z,99601
2018-01-20T17:37:22.647Z,99598
2018-01-20T17:39:51.151Z,99601
2018-01-20T17:42:20.406Z,99607
2018-01-20T17:44:48.896Z,99597
2018-01-20T17:47:17.501Z,99596
2018-01-20T17:49:46.194Z,99591
2018-01-20T17:52:14.892Z,99589
2018-01-20T17:54:43.514Z,99587
2018-01-20T17:57:12.876Z,99592
2018-01-20T17:59:41.383Z,99593
2018-01-20T18:02:09.897Z,99585
2018-01-20T18:04:39.107Z,99598
2018-01-20T18:07:07.598Z,99597
2018-01-20T18:09:36.077Z,99591
2018-01-20T18:12:04.874Z,99594
2018-01-20T18:14:33.958Z,99596
2018-01-20T18:17:02.502Z,99592
2018-01-20T18:19:30.957Z,99594
2018-01-20T18:21:59.512Z,99572
2018-01-20T18:24:27.988Z,99582
2018-01-20T18:26:56.449Z,99584
2018-01-20T18:29:25.253Z,99596
2018-01-20T18:31:53.756Z,99593
2018-01-20T18:34:22.272Z,99589
2018-01-20T18:36:50.821Z,99594
2018-01-20T18:39:20.139Z,99590
2018-01-20T18:41:48.585Z,99599
2018-01-20T18:44:17.187Z,99592
2018-01-20T18:46:45.869Z,99591
2018-01-20T18:49:14.410Z,99600
2018-01-20T18:51:43.057Z,99600
2018-01-20T18:54:12.136Z,99600
2018-01-20T18:56:40.838Z,99607
2018-01-20T18:59:09.705Z,99617
2018-01-20T19:01:38.181Z,99604
2018-01-20T19:04:06.644Z,99599
2018-01-20T19:06:35.141Z,99605
2018-01-20T19:09:04.697Z,99610
2018-01-20T19:11:33.456Z,99607
2018-01-20T19:14:02.137Z,99604
2018-01-20T19:16:30.826Z,99617
2018-01-20T19:18:59.331Z,99616
2018-01-20T19:21:27.848Z,99616
2018-01-20T19:23:57.312Z,99618
2018-01-20T19:26:25.821Z,99629
2018-01-20T19:28:55.764Z,99623
2018-01-20T19:31:24.700Z,99622
2018-01-20T19:33:53.261Z,99635
2018-01-20T19:36:22.482Z,99627
2018-01-20T19:38:51.177Z,99625
2018-01-20T19:41:19.857Z,99628
2018-01-20T19:43:48.517Z,99632
2018-01-20T19:46:16.997Z,99641
2018-01-20T19:48:46.015Z,99638
2018-01-20T19:51:14.704Z,99640
2018-01-20T19:53:43.179Z,99631
2018-01-20T19:58:55.270Z,99630
2018-01-20T20:01:23.753Z,99624
2018-01-20T20:03:52.268Z,99627
2018-01-20T20:06:20.734Z,99628
2018-01-20T20:08:50.185Z,99638
2018-01-20T20:11:18.673Z,99637
2018-01-20T20:13:47.151Z,99637
2018-01-20T20:16:15.910Z,99628
2018-01-20T20:18:44.428Z,99651
2018-01-20T20:21:13.686Z,99643
2018-01-20T20:23:42.178Z,99633
2018-01-20T20:26:10.751Z,99643
2018-01-20T20:28:39.438Z,99644
2018-01-20T20:31:08.124Z,99640
2018-01-20T20:33:36.791Z,99636
2018-01-20T20:36:05.757Z,99644
2018-01-20T20:38:34.786Z,99641
2018-01-20T20:41:03.312Z,99646
2018-01-20T20:43:31.947Z,99646
2018-01-20T20:46:00.480Z,99647
2018-01-20T20:48:30.451Z,99642
2018-01-20T20:50:59.065Z,99658
2018-01-20T20:53:27.635Z,99653
2018-01-20T20:55:56.321Z,99648
2018-01-20T20:58:24.800Z,99646
2018-01-20T21:00:54.102Z,99649
2018-01-20T21:03:23.172Z,99651
2018-01-20T21:05:51.966Z,99654
2018-01-20T21:08:20.432Z,99656
2018-01-20T21:10:49.139Z,99646
2018-01-20T21:13:17.681Z,99664
2018-01-20T21:15:47.001Z,99655
2018-01-20T21:18:15.627Z,99670
2018-01-20T21:20:44.113Z,99666
2018-01-20T21:23:12.781Z,99666
2018-01-20T21:25:41.313Z,99662
2018-01-20T21:28:10.975Z,99658
2018-01-20T21:30:40.293Z,99662
2018-01-20T21:33:08.790Z,99662
2018-01-20T21:35:37.292Z,99661
2018-01-20T21:38:06.528Z,99663
2018-01-20T21:40:34.984Z,99660
2018-01-20T21:43:03.753Z,99655
2018-01-20T21:45:32.456Z,99639
2018-01-20T21:48:01.519Z,99678
2018-01-20T21:50:29.985Z,99674
2018-01-20T21:52:58.649Z,99670
2018-01-20T21:55:27.151Z,99664
2018-01-20T21:57:55.638Z,99680
2018-01-20T22:00:24.125Z,99679
2018-01-20T22:02:52.799Z,99676
2018-01-20T22:05:21.688Z,99670
2018-01-20T22:07:50.765Z,99682
2018-01-20T22:10:19.266Z,99680
2018-01-20T22:12:47.946Z,99686
2018-01-20T22:15:16.456Z,99684
2018-01-20T22:17:45.110Z,99689
2018-01-20T22:20:14.062Z,99680
2018-01-20T22:22:43.310Z,99687
2018-01-20T22:25:11.983Z,99688
2018-01-20T22:27:40.673Z,99692
2018-01-20T22:30:09.371Z,99687
2018-01-20T22:32:38.109Z,99692
2018-01-20T22:35:07.342Z,99695
2018-01-20T22:37:35.839Z,99695
2018-01-20T22:40:04.801Z,99691
2018-01-20T22:42:33.604Z,99703
2018-01-20T22:45:02.416Z,99701
2018-01-20T22:47:30.983Z,99711
2018-01-20T22:49:59.451Z,99708
2018-01-20T22:52:27.958Z,99712
2018-01-20T22:54:56.435Z,99712
2018-01-20T22:57:25.108Z,99713
2018-01-20T22:59:53.589Z,99707
2018-01-20T23:02:22.296Z,99705
2018-01-20T23:04:50.970Z,99720
2018-01-20T23:07:19.654Z,99726
2018-01-20T23:09:48.333Z,99728
2018-01-20T23:12:16.820Z,99732
2018-01-20T23:14:45.578Z,99730
2018-01-20T23:17:14.876Z,99735
2018-01-20T23:19:44.118Z,99737
2018-01-20T23:22:13.649Z,99744
2018-01-20T23:24:42.300Z,99755
2018-01-20T23:27:10.773Z,99749
2018-01-20T23:29:39.660Z,99744
2018-01-20T23:32:08.358Z,99747
2018-01-20T23:34:36.887Z,99747
2018-01-20T23:37:05.521Z,99759
2018-01-20T23:39:34.226Z,99759
2018-01-20T23:42:03.120Z,99759
2018-01-20T23:44:31.629Z,99751
2018-01-20T23:47:00.285Z,99763
2018-01-20T23:49:28.767Z,99761
2018-01-20T23:51:57.216Z,99771
2018-01-20T23:54:25.705Z,99776
2018-01-20T23:56:54.590Z,99780
2018-01-20T23:59:23.299Z,99781
